S/y Blue Clipper — MCRJ6 — position and weather

sailwx.info

Track history (hours):
 
Tides and Currents Weather Stations Pressure Air Temp Water Temp Dewpoint Dewpoint Depression Visibility Wind Speed Wind Dir Waves Ship Positions

S/y Blue Clipper

Last reported at 2020-May-13 19:00 UTC. Time now 2020-Jul-02 16:28 UTC.
Position N 37°08' W 008°32'.
Warning: this ship's position is 49 days out of date.

Length 38 m.

Type: Sailing vessel. MMSI: 232014202.

Date/timePositionNaut miles runAvg speedWind from/ knotsBaromVisibWave heightAir tempDewpointWater temp
2020-May-13 19:00N 37°08' W 008°32'0 0.0
2020-May-13 18:27N 37°08' W 008°32'0 0.0
2020-May-13 17:27N 37°08' W 008°32'0 0.0
2020-May-13 16:27N 37°08' W 008°32'0 0.0
2020-May-13 14:22N 37°08' W 008°32'0 0.0
2020-May-13 13:48N 37°08' W 008°32'0 0.0
2020-May-13 12:15N 37°08' W 008°32'0 0.0
2020-May-13 10:30N 37°08' W 008°32'0 0.0
2020-May-13 09:54N 37°08' W 008°32'0 0.0
2020-May-13 07:30N 37°08' W 008°32'0 0.0
2020-May-13 05:57N 37°08' W 008°32'0 0.0
2020-May-13 04:57N 37°08' W 008°32'0 0.0
2020-May-13 04:30N 37°08' W 008°32'0 0.0
2020-May-13 03:00N 37°08' W 008°32'0 0.0
2020-May-13 02:30N 37°08' W 008°32'0 0.0
2020-May-13 01:00N 37°08' W 008°32'0 0.0
2020-May-12 23:57N 37°08' W 008°32'0 0.0
2020-May-12 18:30N 37°08' W 008°32'0 0.0
2020-May-12 18:00N 37°08' W 008°32'0 0.1
2020-May-12 14:58N 37°08' W 008°32'0 0.0
2020-May-12 12:00N 37°08' W 008°32'7 1.3
2020-May-12 06:56N 37°06' W 008°40'0 0.0
2020-May-12 05:29N 37°06' W 008°40'0 0.0
2020-May-12 04:50N 37°06' W 008°40'0 0.0
2020-May-12 02:26N 37°06' W 008°39'0 0.0
2020-May-11 23:26N 37°06' W 008°40'0 0.0
2020-May-11 22:56N 37°06' W 008°40'0 0.0
2020-May-11 22:26N 37°06' W 008°40'0 0.0
2020-May-11 21:59N 37°06' W 008°40'0 0.0
2020-May-11 21:26N 37°06' W 008°40'0 0.0
2020-May-11 20:26N 37°06' W 008°40'0 0.0
2020-May-11 19:56N 37°06' W 008°40'0 0.0
2020-May-11 18:26N 37°06' W 008°40'0 0.0
2020-May-11 16:26N 37°06' W 008°40'0 0.0
2020-May-11 15:59N 37°06' W 008°40'0 0.0
2020-May-11 14:56N 37°06' W 008°39'0 0.0
2020-May-11 13:56N 37°06' W 008°39'0 0.0
2020-May-11 10:20N 37°06' W 008°39'0 0.0
2020-May-11 09:56N 37°06' W 008°39'0 0.0
2020-May-11 06:30N 37°06' W 008°39'0 0.0
2020-May-11 05:00N 37°06' W 008°39'0 0.0
2020-May-11 04:27N 37°06' W 008°39'0 0.0
2020-May-11 04:00N 37°06' W 008°39'0 0.0
2020-May-11 02:30N 37°06' W 008°40'0 0.0
2020-May-11 01:00N 37°06' W 008°40'0 0.0
2020-May-11 00:30N 37°06' W 008°39'0 0.0
2020-May-10 23:54N 37°06' W 008°39'0 0.0
2020-May-10 23:30N 37°06' W 008°39'0 0.0
2020-May-10 22:00N 37°06' W 008°39'0 0.0
2020-May-10 21:30N 37°06' W 008°39'0 0.0
2020-May-10 19:57N 37°06' W 008°39'0 0.0
2020-May-10 17:00N 37°06' W 008°39'2 1.4
2020-May-10 15:30N 37°05' W 008°37'47 3.6
2020-May-10 02:31N 37°48' W 008°59'12 5.0
2020-May-10 00:01N 38°01' W 008°59'12 5.0
2020-May-09 21:31N 38°13' W 008°60'17 4.0
2020-May-09 17:21N 38°28' W 008°51'1 0.1
2020-May-09 10:57N 38°28' W 008°51'0 0.0
2020-May-08 08:28N 38°27' W 008°51'0 0.0
2020-May-08 03:25N 38°27' W 008°51'0 0.0
2020-May-08 00:55N 38°27' W 008°51'0 0.0
2020-May-07 23:58N 38°27' W 008°51'0 0.0
2020-May-07 22:51N 38°27' W 008°51'0 0.0
2020-May-07 21:29N 38°27' W 008°51'0 0.1
2020-May-07 19:59N 38°27' W 008°51'0 0.0
2020-May-07 14:56N 38°27' W 008°50'3 2.7
2020-May-07 14:00N 38°29' W 008°53'1 1.4
2020-May-07 12:57N 38°31' W 008°53'0 0.0
2020-May-07 12:30N 38°31' W 008°53'0 0.0
2020-May-07 09:27N 38°31' W 008°53'0 0.0
2020-May-07 07:45N 38°31' W 008°53'0 0.0
2020-May-07 05:15N 38°31' W 008°53'0 0.0
2020-May-07 03:45N 38°31' W 008°53'0 0.1
2020-May-07 03:00N 38°31' W 008°53'0 0.0
2020-May-07 01:27N 38°31' W 008°53'0 0.0
2020-May-07 00:45N 38°31' W 008°53'0 0.0
2020-May-06 22:30N 38°31' W 008°53'0 0.0
2020-May-06 21:55N 38°31' W 008°53'0 0.0
2020-May-06 20:58N 38°31' W 008°53'0 0.0
2020-May-06 18:28N 38°31' W 008°53'0 0.0
2020-May-06 16:52N 38°31' W 008°53'0 0.0
2020-May-06 16:28N 38°31' W 008°53'0 0.0
2020-May-06 09:58N 38°31' W 008°53'0 0.0
2020-May-06 07:56N 38°31' W 008°53'0 0.0
2020-May-06 06:53N 38°31' W 008°53'0 0.0
2020-May-06 05:24N 38°31' W 008°53'0 0.0
2020-May-05 22:51N 38°31' W 008°53'0 0.0
2020-May-05 20:45N 38°31' W 008°53'4 0.9
2020-May-05 16:29N 38°27' W 008°51'0 0.0
2020-May-05 14:59N 38°27' W 008°51'0 0.0
2020-May-05 12:58N 38°27' W 008°50'0 0.0
2020-May-05 12:13N 38°27' W 008°50'0 0.0
2020-May-05 10:28N 38°27' W 008°51'0 0.0
2020-May-04 14:50N 38°27' W 008°51'0 0.0
2020-May-04 11:59N 38°27' W 008°50'0 0.0
2020-May-03 21:03N 38°27' W 008°50'  
Track history (hours):
 
Tides and Currents Weather Stations Pressure Air Temp Water Temp Dewpoint Dewpoint Depression Visibility Wind Speed Wind Dir Waves Ship Positions

S/y Blue Clipper

Last reported at 2020-May-13 19:00 UTC. Time now 2020-Jul-02 16:28 UTC.
Position N 37°08' W 008°32'.
Warning: this ship's position is 49 days out of date.

Length 38 m.

Type: Sailing vessel. MMSI: 232014202.

Date/timePositionNaut miles runAvg speedWind from/ knotsBaromVisibWave heightAir tempDewpointWater temp
2020-May-13 19:00N 37°08' W 008°32'0 0.0
2020-May-13 18:27N 37°08' W 008°32'0 0.0
2020-May-13 17:27N 37°08' W 008°32'0 0.0
2020-May-13 16:27N 37°08' W 008°32'0 0.0
2020-May-13 14:22N 37°08' W 008°32'0 0.0
2020-May-13 13:48N 37°08' W 008°32'0 0.0
2020-May-13 12:15N 37°08' W 008°32'0 0.0
2020-May-13 10:30N 37°08' W 008°32'0 0.0
2020-May-13 09:54N 37°08' W 008°32'0 0.0
2020-May-13 07:30N 37°08' W 008°32'0 0.0
2020-May-13 05:57N 37°08' W 008°32'0 0.0
2020-May-13 04:57N 37°08' W 008°32'0 0.0
2020-May-13 04:30N 37°08' W 008°32'0 0.0
2020-May-13 03:00N 37°08' W 008°32'0 0.0
2020-May-13 02:30N 37°08' W 008°32'0 0.0
2020-May-13 01:00N 37°08' W 008°32'0 0.0
2020-May-12 23:57N 37°08' W 008°32'0 0.0
2020-May-12 18:30N 37°08' W 008°32'0 0.0
2020-May-12 18:00N 37°08' W 008°32'0 0.1
2020-May-12 14:58N 37°08' W 008°32'0 0.0
2020-May-12 12:00N 37°08' W 008°32'7 1.3
2020-May-12 06:56N 37°06' W 008°40'0 0.0
2020-May-12 05:29N 37°06' W 008°40'0 0.0
2020-May-12 04:50N 37°06' W 008°40'0 0.0
2020-May-12 02:26N 37°06' W 008°39'0 0.0
2020-May-11 23:26N 37°06' W 008°40'0 0.0
2020-May-11 22:56N 37°06' W 008°40'0 0.0
2020-May-11 22:26N 37°06' W 008°40'0 0.0
2020-May-11 21:59N 37°06' W 008°40'0 0.0
2020-May-11 21:26N 37°06' W 008°40'0 0.0
2020-May-11 20:26N 37°06' W 008°40'0 0.0
2020-May-11 19:56N 37°06' W 008°40'0 0.0
2020-May-11 18:26N 37°06' W 008°40'0 0.0
2020-May-11 16:26N 37°06' W 008°40'0 0.0
2020-May-11 15:59N 37°06' W 008°40'0 0.0
2020-May-11 14:56N 37°06' W 008°39'0 0.0
2020-May-11 13:56N 37°06' W 008°39'0 0.0
2020-May-11 10:20N 37°06' W 008°39'0 0.0
2020-May-11 09:56N 37°06' W 008°39'0 0.0
2020-May-11 06:30N 37°06' W 008°39'0 0.0
2020-May-11 05:00N 37°06' W 008°39'0 0.0
2020-May-11 04:27N 37°06' W 008°39'0 0.0
2020-May-11 04:00N 37°06' W 008°39'0 0.0
2020-May-11 02:30N 37°06' W 008°40'0 0.0
2020-May-11 01:00N 37°06' W 008°40'0 0.0
2020-May-11 00:30N 37°06' W 008°39'0 0.0
2020-May-10 23:54N 37°06' W 008°39'0 0.0
2020-May-10 23:30N 37°06' W 008°39'0 0.0
2020-May-10 22:00N 37°06' W 008°39'0 0.0
2020-May-10 21:30N 37°06' W 008°39'0 0.0
2020-May-10 19:57N 37°06' W 008°39'0 0.0
2020-May-10 17:00N 37°06' W 008°39'2 1.4
2020-May-10 15:30N 37°05' W 008°37'47 3.6
2020-May-10 02:31N 37°48' W 008°59'12 5.0
2020-May-10 00:01N 38°01' W 008°59'12 5.0
2020-May-09 21:31N 38°13' W 008°60'17 4.0
2020-May-09 17:21N 38°28' W 008°51'1 0.1
2020-May-09 10:57N 38°28' W 008°51'0 0.0
2020-May-08 08:28N 38°27' W 008°51'0 0.0
2020-May-08 03:25N 38°27' W 008°51'0 0.0
2020-May-08 00:55N 38°27' W 008°51'0 0.0
2020-May-07 23:58N 38°27' W 008°51'0 0.0
2020-May-07 22:51N 38°27' W 008°51'0 0.0
2020-May-07 21:29N 38°27' W 008°51'0 0.1
2020-May-07 19:59N 38°27' W 008°51'0 0.0
2020-May-07 14:56N 38°27' W 008°50'3 2.7
2020-May-07 14:00N 38°29' W 008°53'1 1.4
2020-May-07 12:57N 38°31' W 008°53'0 0.0
2020-May-07 12:30N 38°31' W 008°53'0 0.0
2020-May-07 09:27N 38°31' W 008°53'0 0.0
2020-May-07 07:45N 38°31' W 008°53'0 0.0
2020-May-07 05:15N 38°31' W 008°53'0 0.0
2020-May-07 03:45N 38°31' W 008°53'0 0.1
2020-May-07 03:00N 38°31' W 008°53'0 0.0
2020-May-07 01:27N 38°31' W 008°53'0 0.0
2020-May-07 00:45N 38°31' W 008°53'0 0.0
2020-May-06 22:30N 38°31' W 008°53'0 0.0
2020-May-06 21:55N 38°31' W 008°53'0 0.0
2020-May-06 20:58N 38°31' W 008°53'0 0.0
2020-May-06 18:28N 38°31' W 008°53'0 0.0
2020-May-06 16:52N 38°31' W 008°53'0 0.0
2020-May-06 16:28N 38°31' W 008°53'0 0.0
2020-May-06 09:58N 38°31' W 008°53'0 0.0
2020-May-06 07:56N 38°31' W 008°53'0 0.0
2020-May-06 06:53N 38°31' W 008°53'0 0.0
2020-May-06 05:24N 38°31' W 008°53'0 0.0
2020-May-05 22:51N 38°31' W 008°53'0 0.0
2020-May-05 20:45N 38°31' W 008°53'4 0.9
2020-May-05 16:29N 38°27' W 008°51'0 0.0
2020-May-05 14:59N 38°27' W 008°51'0 0.0
2020-May-05 12:58N 38°27' W 008°50'0 0.0
2020-May-05 12:13N 38°27' W 008°50'0 0.0
2020-May-05 10:28N 38°27' W 008°51'0 0.0
2020-May-04 14:50N 38°27' W 008°51'0 0.0
2020-May-04 11:59N 38°27' W 008°50'0 0.0
2020-May-03 21:03N 38°27' W 008°50'  

Dump ship's entire track history